createdAt,value
2023-04-19T00:02:22.944Z,102373.38
2023-04-19T00:04:49.909Z,102375.09
2023-04-19T00:07:20.323Z,102375.91
2023-04-19T00:09:47.205Z,102370.50
2023-04-19T00:12:14.032Z,102373.97
2023-04-19T00:14:40.784Z,102368.53
2023-04-19T00:17:07.582Z,102370.22
2023-04-19T00:19:34.453Z,102368.38
2023-04-19T00:22:01.262Z,102370.03
2023-04-19T00:24:28.312Z,102367.22
2023-04-19T00:26:55.299Z,102368.84
2023-04-19T00:29:22.049Z,102381.16
2023-04-19T00:31:48.843Z,102381.84
2023-04-19T00:34:16.225Z,102370.16
2023-04-19T00:36:43.141Z,102371.72
2023-04-19T00:39:09.917Z,102372.50
2023-04-19T00:41:36.688Z,102379.44
2023-04-19T00:44:03.489Z,102376.69
2023-04-19T00:46:30.627Z,102377.38
2023-04-19T00:48:57.817Z,102379.03
2023-04-19T00:51:24.624Z,102378.88
2023-04-19T00:53:52.139Z,102372.56
2023-04-19T00:56:22.341Z,102379.47
2023-04-19T00:58:49.590Z,102382.91
2023-04-19T01:01:16.842Z,102377.47
2023-04-19T01:03:44.460Z,102372.97
2023-04-19T01:06:11.797Z,102372.88
2023-04-19T01:08:39.567Z,102374.50
2023-04-19T01:11:07.961Z,102376.16
2023-04-19T01:13:34.905Z,102381.31
2023-04-19T01:16:01.707Z,102374.16
2023-04-19T01:18:32.887Z,102381.97
2023-04-19T01:20:59.762Z,102373.03
2023-04-19T01:23:26.554Z,102368.56
2023-04-19T01:25:53.299Z,102361.31
2023-04-19T01:28:20.076Z,102369.16
2023-04-19T01:30:46.842Z,102369.06
2023-04-19T01:33:13.584Z,102364.53
2023-04-19T01:35:40.450Z,102367.97
2023-04-19T01:38:07.266Z,102370.53
2023-04-19T01:40:36.338Z,102371.25
2023-04-19T01:43:03.318Z,102369.44
2023-04-19T01:45:30.221Z,102371.13
2023-04-19T01:47:57.027Z,102370.16
2023-04-19T01:50:23.891Z,102361.25
2023-04-19T01:52:50.662Z,102366.44
2023-04-19T01:55:17.557Z,102362.88
2023-04-19T01:57:44.524Z,102357.47
2023-04-19T02:00:11.949Z,102357.34
2023-04-19T02:02:39.008Z,102358.19
2023-04-19T02:05:07.066Z,102351.03
2023-04-19T02:07:34.026Z,102354.47
2023-04-19T02:10:00.836Z,102357.88
2023-04-19T02:12:31.335Z,102348.09
2023-04-19T02:14:59.438Z,102355.91
2023-04-19T02:17:26.607Z,102357.63
2023-04-19T02:19:53.392Z,102353.94
2023-04-19T02:22:20.718Z,102360.09
2023-04-19T02:24:49.802Z,102358.25
2023-04-19T02:27:17.178Z,102355.44
2023-04-19T02:29:44.412Z,102354.47
2023-04-19T02:32:14.326Z,102357.88
2023-04-19T02:34:41.182Z,102354.22
2023-04-19T02:37:07.998Z,102362.03
2023-04-19T02:39:34.756Z,102356.69
2023-04-19T02:42:02.234Z,102359.19
2023-04-19T02:44:28.988Z,102354.72
2023-04-19T02:46:57.541Z,102353.72
2023-04-19T02:49:24.401Z,102358.09
2023-04-19T02:51:52.750Z,102355.38
2023-04-19T02:54:19.531Z,102357.97
2023-04-19T02:56:46.315Z,102358.75
2023-04-19T02:59:13.095Z,102355.19
2023-04-19T03:01:39.879Z,102354.22
2023-04-19T03:04:06.925Z,102364.78
2023-04-19T03:06:33.787Z,102353.22
2023-04-19T03:09:00.793Z,102355.75
2023-04-19T03:11:27.626Z,102356.56
2023-04-19T03:13:54.403Z,102355.63
2023-04-19T03:16:21.221Z,102345.84
2023-04-19T03:18:49.488Z,102351.03
2023-04-19T03:21:16.483Z,102347.47
2023-04-19T03:23:43.246Z,102349.16
2023-04-19T03:26:10.136Z,102342.03
2023-04-19T03:28:37.109Z,102342.88
2023-04-19T03:31:03.957Z,102331.41
2023-04-19T03:33:30.779Z,102338.44
2023-04-19T03:35:57.537Z,102335.78
2023-04-19T03:38:24.309Z,102332.16
2023-04-19T03:40:51.183Z,102329.44
2023-04-19T03:43:18.432Z,102339.13
2023-04-19T03:45:45.166Z,102338.16
2023-04-19T03:48:11.959Z,102337.25
2023-04-19T03:50:38.759Z,102336.25
2023-04-19T03:53:05.824Z,102332.66
2023-04-19T03:55:32.604Z,102337.88
2023-04-19T03:57:59.534Z,102329.88
2023-04-19T04:00:27.353Z,102340.38
2023-04-19T04:02:54.296Z,102340.25
2023-04-19T04:05:21.339Z,102337.56
2023-04-19T04:07:48.141Z,102328.66
2023-04-19T04:10:14.932Z,102333.88
2023-04-19T04:12:41.689Z,102330.28
2023-04-19T04:15:09.142Z,102325.88
2023-04-19T04:17:35.961Z,102330.19
2023-04-19T04:20:03.241Z,102331.91
2023-04-19T04:22:29.979Z,102323.94
2023-04-19T04:24:58.102Z,102327.41
2023-04-19T04:27:24.891Z,102331.78
2023-04-19T04:29:51.651Z,102333.53
2023-04-19T04:32:22.897Z,102337.00
2023-04-19T04:34:50.325Z,102329.00
2023-04-19T04:37:17.820Z,102335.19
2023-04-19T04:39:44.613Z,102333.47
2023-04-19T04:42:12.128Z,102337.91
2023-04-19T04:44:39.006Z,102345.84
2023-04-19T04:47:05.839Z,102334.41
2023-04-19T04:49:32.685Z,102338.84
2023-04-19T04:51:59.564Z,102342.44
2023-04-19T04:54:26.320Z,102339.88
2023-04-19T04:56:53.093Z,102340.00
2023-04-19T04:59:19.909Z,102336.59
2023-04-19T05:01:46.777Z,102338.56
2023-04-19T05:04:13.824Z,102334.78
2023-04-19T05:06:41.051Z,102330.19
2023-04-19T05:09:08.097Z,102332.84
2023-04-19T05:11:35.094Z,102333.88
2023-04-19T05:14:02.805Z,102337.47
2023-04-19T05:16:29.729Z,102336.53
2023-04-19T05:18:56.640Z,102329.22
2023-04-19T05:21:23.430Z,102329.78
2023-04-19T05:23:53.311Z,102327.78
2023-04-19T05:26:20.141Z,102317.78
2023-04-19T05:28:46.997Z,102328.84
2023-04-19T05:31:14.170Z,102335.25
2023-04-19T05:33:41.004Z,102328.44
2023-04-19T05:36:08.138Z,102324.31
2023-04-19T05:38:34.882Z,102322.06
2023-04-19T05:41:03.129Z,102318.09
2023-04-19T05:43:29.940Z,102317.63
2023-04-19T05:45:57.019Z,102326.03
2023-04-19T05:48:25.288Z,102323.69
2023-04-19T05:50:56.562Z,102313.22
2023-04-19T05:53:23.492Z,102311.66
2023-04-19T05:55:51.359Z,102314.53
2023-04-19T05:58:19.004Z,102302.16
2023-04-19T06:00:46.369Z,102308.50
2023-04-19T06:03:13.288Z,102315.63
2023-04-19T06:05:40.932Z,102309.41
2023-04-19T06:08:09.364Z,102307.63
2023-04-19T06:10:52.793Z,102312.97
2023-04-19T06:13:21.134Z,102308.53
2023-04-19T06:15:48.747Z,102296.91
2023-04-19T06:18:19.645Z,102304.03
2023-04-19T06:20:47.251Z,102300.50
2023-04-19T06:23:15.062Z,102298.72
2023-04-19T06:25:42.025Z,102300.50
2023-04-19T06:28:08.806Z,102296.03
2023-04-19T06:30:35.693Z,102295.13
2023-04-19T06:33:02.624Z,102297.75
2023-04-19T06:35:29.403Z,102301.28
2023-04-19T06:37:56.157Z,102297.69
2023-04-19T06:40:24.106Z,102296.84
2023-04-19T06:42:50.908Z,102296.84
2023-04-19T06:45:17.828Z,102301.28
2023-04-19T06:47:44.715Z,102298.56
2023-04-19T06:50:11.749Z,102299.44
2023-04-19T06:52:38.969Z,102287.81
2023-04-19T06:55:07.420Z,102279.78
2023-04-19T06:57:34.213Z,102286.91
2023-04-19T07:00:01.311Z,102286.06
2023-04-19T07:02:28.381Z,102277.22
2023-04-19T07:04:55.427Z,102282.66
2023-04-19T07:07:22.226Z,102271.94
2023-04-19T07:09:48.978Z,102264.81
2023-04-19T07:12:16.033Z,102276.41
2023-04-19T07:14:42.785Z,102276.41
2023-04-19T07:17:09.611Z,102268.31
2023-04-19T07:19:36.418Z,102259.31
2023-04-19T07:22:03.503Z,102260.91
2023-04-19T07:24:30.418Z,102265.22
2023-04-19T07:26:57.586Z,102250.84
2023-04-19T07:29:24.348Z,102262.31
2023-04-19T07:31:51.303Z,102257.78
2023-04-19T07:34:18.387Z,102263.88
2023-04-19T07:36:45.369Z,102255.66
2023-04-19T07:39:13.191Z,102239.50
2023-04-19T07:41:40.037Z,102243.06
2023-04-19T07:44:06.804Z,102242.97
2023-04-19T07:46:33.608Z,102245.66
2023-04-19T07:49:00.484Z,102232.34
2023-04-19T07:51:27.385Z,102243.38
2023-04-19T07:53:54.213Z,102235.66
2023-04-19T07:56:22.866Z,102241.91
2023-04-19T07:59:04.119Z,102240.16
2023-04-19T08:01:34.908Z,102237.56
2023-04-19T08:04:02.398Z,102237.69
2023-04-19T08:06:30.713Z,102234.22
2023-04-19T08:08:57.510Z,102229.88
2023-04-19T08:11:25.266Z,102238.00
2023-04-19T08:14:04.444Z,102233.59
2023-04-19T08:19:05.922Z,102224.72
2023-04-19T08:21:40.684Z,102226.50
2023-04-19T08:24:08.516Z,102229.16
2023-04-19T08:26:35.414Z,102217.59
2023-04-19T08:29:02.444Z,102214.03
2023-04-19T08:31:29.444Z,102221.16
2023-04-19T08:33:56.966Z,102222.06
2023-04-19T08:36:37.036Z,102216.69
2023-04-19T08:39:10.372Z,102222.03
2023-04-19T08:41:48.096Z,102211.31
2023-04-19T08:44:32.480Z,102214.88
2023-04-19T08:47:02.771Z,102210.44
2023-04-19T08:49:29.870Z,102206.84
2023-04-19T08:51:58.919Z,102205.03
2023-04-19T08:54:26.354Z,102197.91
2023-04-19T08:56:54.446Z,102207.69
2023-04-19T08:59:21.435Z,102197.03
2023-04-19T09:01:48.406Z,102191.69
2023-04-19T09:06:45.197Z,102204.13
2023-04-19T09:09:34.188Z,102202.34
2023-04-19T09:12:04.067Z,102194.34
2023-04-19T09:14:30.864Z,102181.88
2023-04-19T09:17:16.811Z,102186.34
2023-04-19T09:19:49.525Z,102168.50
2023-04-19T09:22:16.947Z,102170.28
2023-04-19T09:27:15.847Z,102159.56
2023-04-19T09:29:52.944Z,102148.91
2023-04-19T09:32:19.886Z,102157.81
2023-04-19T09:34:58.073Z,102148.91
2023-04-19T09:39:56.393Z,102137.34
2023-04-19T09:42:42.369Z,102126.66
2023-04-19T09:47:41.010Z,102109.75
2023-04-19T09:50:22.601Z,102112.41
2023-04-19T09:52:52.431Z,102108.84
2023-04-19T09:57:49.882Z,102087.47
2023-04-19T10:00:17.029Z,102077.66
2023-04-19T10:02:48.761Z,102083.03
2023-04-19T10:05:21.259Z,102066.09
2023-04-19T10:07:49.546Z,102070.50
2023-04-19T10:10:20.712Z,102073.22
2023-04-19T10:15:23.488Z,102057.16
2023-04-19T10:17:50.941Z,102051.81
2023-04-19T10:20:30.801Z,102041.13
2023-04-19T10:22:57.804Z,102041.97
2023-04-19T10:25:30.938Z,102047.31
2023-04-19T10:27:57.934Z,102049.97
2023-04-19T10:30:28.393Z,102034.81
2023-04-19T10:32:58.818Z,102031.22
2023-04-19T10:35:37.672Z,102031.22
2023-04-19T10:38:16.376Z,102032.97
2023-04-19T10:40:56.176Z,102025.81
2023-04-19T10:43:36.860Z,102026.72
2023-04-19T10:46:22.971Z,102023.16
2023-04-19T10:48:53.766Z,102023.13
2023-04-19T10:51:23.863Z,102011.50
2023-04-19T10:53:56.015Z,102018.59
2023-04-19T10:57:02.778Z,102005.22
2023-04-19T10:59:37.597Z,101998.13
2023-04-19T11:02:26.061Z,102000.78
2023-04-19T11:04:52.946Z,101999.81
2023-04-19T11:07:21.355Z,101995.34
2023-04-19T11:09:49.952Z,101989.94
2023-04-19T11:12:20.955Z,101980.97
2023-04-19T11:14:59.733Z,101977.38
2023-04-19T11:17:29.252Z,101976.47
2023-04-19T11:19:59.508Z,101982.69
2023-04-19T11:22:29.609Z,101962.13
2023-04-19T11:24:56.417Z,101984.38
2023-04-19T11:27:23.276Z,101963.84
2023-04-19T11:29:50.094Z,101965.59
2023-04-19T11:32:16.884Z,101955.75
2023-04-19T11:34:43.700Z,101961.09
2023-04-19T11:37:11.573Z,101950.38
2023-04-19T11:39:47.304Z,101961.03
2023-04-19T11:42:20.639Z,101953.00
2023-04-19T11:44:52.090Z,101944.94
2023-04-19T11:47:20.201Z,101943.09
2023-04-19T11:49:47.045Z,101934.97
2023-04-19T11:52:22.480Z,101939.44
2023-04-19T11:54:50.403Z,101937.66
2023-04-19T11:57:29.083Z,101929.56
2023-04-19T12:00:08.213Z,101933.16
2023-04-19T12:02:39.623Z,101925.09
2023-04-19T12:05:11.613Z,101930.41
2023-04-19T12:07:58.407Z,101916.00
2023-04-19T12:10:25.335Z,101917.66
2023-04-19T12:12:52.108Z,101925.63
2023-04-19T12:15:18.962Z,101927.41
2023-04-19T12:18:02.390Z,101926.41
2023-04-19T12:20:33.778Z,101912.00
2023-04-19T12:23:00.705Z,101924.47
2023-04-19T12:25:33.067Z,101916.53
2023-04-19T12:28:07.022Z,101914.84
2023-04-19T12:30:36.423Z,101914.78
2023-04-19T12:33:03.469Z,101906.69
2023-04-19T12:35:30.713Z,101902.88
2023-04-19T12:37:59.285Z,101907.22
2023-04-19T12:40:27.333Z,101903.72
2023-04-19T12:42:54.850Z,101900.13
2023-04-19T12:45:21.765Z,101902.88
2023-04-19T12:47:49.207Z,101902.94
2023-04-19T12:50:16.413Z,101901.13
2023-04-19T12:52:46.223Z,101901.13
2023-04-19T12:55:13.225Z,101894.88
2023-04-19T12:57:40.112Z,101885.94
2023-04-19T13:00:07.759Z,101893.16
2023-04-19T13:02:35.327Z,101883.25
2023-04-19T13:05:04.255Z,101889.44
2023-04-19T13:07:31.566Z,101881.41
2023-04-19T13:09:58.402Z,101886.78
2023-04-19T13:12:25.296Z,101876.03
2023-04-19T13:14:52.712Z,101872.34
2023-04-19T13:17:20.441Z,101885.88
2023-04-19T13:19:47.649Z,101879.75
2023-04-19T13:22:15.785Z,101873.59
2023-04-19T13:24:42.692Z,101866.53
2023-04-19T13:27:09.599Z,101874.69
2023-04-19T13:29:36.765Z,101883.63
2023-04-19T13:32:03.559Z,101868.44
2023-04-19T13:34:30.577Z,101869.34
2023-04-19T13:36:58.213Z,101872.97
2023-04-19T13:39:25.401Z,101869.47
2023-04-19T13:41:52.282Z,101872.19
2023-04-19T13:44:19.315Z,101874.97
2023-04-19T13:46:46.199Z,101869.69
2023-04-19T13:49:13.034Z,101866.09
2023-04-19T13:51:49.487Z,101861.63
2023-04-19T13:54:18.322Z,101867.00
2023-04-19T13:56:45.800Z,101853.59
2023-04-19T13:59:12.595Z,101849.97
2023-04-19T14:01:39.477Z,101849.84
2023-04-19T14:04:06.721Z,101853.31
2023-04-19T14:06:33.885Z,101846.94
2023-04-19T14:09:00.655Z,101841.44
2023-04-19T14:11:28.203Z,101840.53
2023-04-19T14:13:55.656Z,101838.75
2023-04-19T14:16:25.136Z,101828.03
2023-04-19T14:18:52.434Z,101833.31
2023-04-19T14:21:22.716Z,101814.63
2023-04-19T14:23:49.506Z,101838.88
2023-04-19T14:26:16.309Z,101823.81
2023-04-19T14:28:43.134Z,101817.69
2023-04-19T14:31:09.931Z,101819.47
2023-04-19T14:33:36.744Z,101808.72
2023-04-19T14:36:03.992Z,101806.97
2023-04-19T14:38:30.855Z,101816.88
2023-04-19T14:40:57.655Z,101808.09
2023-04-19T14:43:24.411Z,101812.66
2023-04-19T14:45:52.695Z,101796.59
2023-04-19T14:48:21.910Z,101807.19
2023-04-19T14:50:49.045Z,101786.50
2023-04-19T14:53:16.119Z,101795.25
2023-04-19T14:55:42.941Z,101782.66
2023-04-19T14:58:09.815Z,101788.91
2023-04-19T15:00:36.607Z,101805.06
2023-04-19T15:03:03.530Z,101795.41
2023-04-19T15:05:30.662Z,101790.19
2023-04-19T15:07:57.483Z,101790.25
2023-04-19T15:10:24.354Z,101781.31
2023-04-19T15:12:51.121Z,101782.13
2023-04-19T15:15:17.870Z,101788.34
2023-04-19T15:17:44.881Z,101790.13
2023-04-19T15:20:12.000Z,101783.03
2023-04-19T15:22:38.899Z,101786.72
2023-04-19T15:25:06.102Z,101780.53
2023-04-19T15:27:32.920Z,101780.63
2023-04-19T15:29:59.781Z,101773.53
2023-04-19T15:32:28.924Z,101777.13
2023-04-19T15:34:55.833Z,101760.16
2023-04-19T15:37:22.653Z,101771.72
2023-04-19T15:39:50.215Z,101760.09
2023-04-19T15:42:17.066Z,101763.66
2023-04-19T15:44:44.373Z,101770.81
2023-04-19T15:47:11.245Z,101762.78
2023-04-19T15:49:40.417Z,101765.47
2023-04-19T15:52:08.750Z,101777.13
2023-04-19T15:54:37.587Z,101779.00
2023-04-19T15:57:04.396Z,101773.75
2023-04-19T15:59:31.600Z,101776.53
2023-04-19T16:01:58.523Z,101776.59
2023-04-19T16:04:25.764Z,101778.47
2023-04-19T16:06:52.753Z,101774.09
2023-04-19T16:09:19.558Z,101765.19
2023-04-19T16:11:46.463Z,101761.59
2023-04-19T16:14:13.391Z,101752.69
2023-04-19T16:16:40.282Z,101766.97
2023-04-19T16:19:07.173Z,101759.88
2023-04-19T16:21:34.046Z,101757.19
2023-04-19T16:24:00.983Z,101759.03
2023-04-19T16:26:27.905Z,101768.84
2023-04-19T16:28:54.800Z,101759.88
2023-04-19T16:31:21.756Z,101761.59
2023-04-19T16:33:48.654Z,101754.44
2023-04-19T16:36:15.450Z,101747.28
2023-04-19T16:38:42.205Z,101758.03
2023-04-19T16:41:09.205Z,101753.63
2023-04-19T16:43:36.805Z,101754.59
2023-04-19T16:46:04.082Z,101759.13
2023-04-19T16:48:30.939Z,101758.25
2023-04-19T16:50:57.710Z,101757.41
2023-04-19T16:53:25.208Z,101757.44
2023-04-19T16:55:52.131Z,101749.47
2023-04-19T16:58:19.609Z,101750.34
2023-04-19T17:00:46.508Z,101743.25
2023-04-19T17:03:14.293Z,101757.53
2023-04-19T17:05:41.209Z,101752.22
2023-04-19T17:08:08.090Z,101744.22
2023-04-19T17:10:34.856Z,101755.00
2023-04-19T17:13:01.817Z,101755.91
2023-04-19T17:15:28.746Z,101747.91
2023-04-19T17:17:55.624Z,101763.09
2023-04-19T17:20:22.435Z,101751.53
2023-04-19T17:22:49.195Z,101753.31
2023-04-19T17:25:15.975Z,101747.97
2023-04-19T17:27:42.794Z,101757.75
2023-04-19T17:30:09.825Z,101780.06
2023-04-19T17:32:36.664Z,101749.84
2023-04-19T17:35:04.556Z,101757.00
2023-04-19T17:37:31.410Z,101760.56
2023-04-19T17:39:58.224Z,101758.81
2023-04-19T17:42:25.876Z,101755.25
2023-04-19T17:44:52.941Z,101765.09
2023-04-19T17:47:20.305Z,101759.75
2023-04-19T17:49:47.461Z,101757.06
2023-04-19T17:52:14.434Z,101767.78
2023-04-19T17:54:41.223Z,101758.00
2023-04-19T17:57:07.993Z,101768.72
2023-04-19T17:59:35.269Z,101765.16
2023-04-19T18:02:02.333Z,101766.94
2023-04-19T18:04:30.789Z,101769.66
2023-04-19T18:06:57.773Z,101772.34
2023-04-19T18:09:24.582Z,101773.25
2023-04-19T18:11:51.404Z,101778.59
2023-04-19T18:14:18.177Z,101776.84
2023-04-19T18:16:44.978Z,101782.19
2023-04-19T18:19:11.808Z,101777.78
2023-04-19T18:21:38.722Z,101774.22
2023-04-19T18:24:06.181Z,101797.38
2023-04-19T18:26:41.850Z,101794.69
2023-04-19T18:29:09.642Z,101792.91
2023-04-19T18:31:36.436Z,101794.69
2023-04-19T18:34:03.692Z,101784.94
2023-04-19T18:36:31.438Z,101780.50
2023-04-19T18:38:58.211Z,101786.72
2023-04-19T18:41:25.089Z,101788.50
2023-04-19T18:44:18.463Z,101789.41
2023-04-19T18:46:38.602Z,101790.31
2023-04-19T18:49:07.980Z,101789.41
2023-04-19T18:51:34.747Z,101796.50
2023-04-19T18:54:01.626Z,101791.19
2023-04-19T18:57:03.826Z,101790.31
2023-04-19T18:59:15.932Z,101797.41
2023-04-19T19:01:45.667Z,101801.84
2023-04-19T19:04:37.430Z,101794.72
2023-04-19T19:07:18.226Z,101795.63
2023-04-19T19:09:56.117Z,101822.28
2023-04-19T19:12:23.602Z,101821.38
2023-04-19T19:14:50.398Z,101815.19
2023-04-19T19:17:17.250Z,101812.50
2023-04-19T19:19:44.072Z,101804.47
2023-04-19T19:22:25.061Z,101821.34
2023-04-19T19:24:54.074Z,101801.81
2023-04-19T19:27:20.845Z,101797.28
2023-04-19T19:29:47.662Z,101815.03
2023-04-19T19:32:14.439Z,101807.94
2023-04-19T19:34:53.814Z,101799.03
2023-04-19T19:37:22.132Z,101801.69
2023-04-19T19:39:48.913Z,101794.56
2023-04-19T19:42:17.153Z,101805.19
2023-04-19T19:44:44.066Z,101787.38
2023-04-19T19:47:11.831Z,101776.69
2023-04-19T19:52:08.660Z,101756.25
2023-04-19T19:54:35.576Z,101752.69
2023-04-19T19:59:34.854Z,101749.16
2023-04-19T20:02:03.390Z,101740.28
2023-04-19T20:04:31.476Z,101736.72
2023-04-19T20:07:25.885Z,101730.53
2023-04-19T20:09:45.294Z,101743.81
2023-04-19T20:12:13.445Z,101715.44
2023-04-19T20:14:40.855Z,101722.50
2023-04-19T20:17:07.794Z,101729.56
2023-04-19T20:19:35.730Z,101714.47
2023-04-19T20:22:02.490Z,101732.19
2023-04-19T20:24:29.800Z,101726.81
2023-04-19T20:26:57.373Z,101725.00
2023-04-19T20:29:24.222Z,101726.75
2023-04-19T20:31:54.176Z,101722.28
2023-04-19T20:34:23.982Z,101721.34
2023-04-19T20:36:51.398Z,101715.97
2023-04-19T20:39:18.933Z,101716.78
2023-04-19T20:41:51.145Z,101710.53
2023-04-19T20:44:18.171Z,101694.56
2023-04-19T20:46:45.018Z,101691.03
2023-04-19T20:49:12.032Z,101689.25
2023-04-19T20:51:38.849Z,101684.81
2023-04-19T20:54:05.650Z,101679.50
2023-04-19T20:56:32.454Z,101685.72
2023-04-19T20:58:59.221Z,101675.09
2023-04-19T21:01:26.123Z,101669.78
2023-04-19T21:03:53.144Z,101665.41
2023-04-19T21:06:23.237Z,101671.63
2023-04-19T21:08:50.447Z,101660.09
2023-04-19T21:11:17.257Z,101672.53
2023-04-19T21:13:44.053Z,101652.16
2023-04-19T21:16:10.873Z,101677.88
2023-04-19T21:18:37.640Z,101663.72
2023-04-19T21:21:04.542Z,101667.22
2023-04-19T21:23:31.370Z,101662.78
2023-04-19T21:25:58.146Z,101667.19
2023-04-19T21:28:25.032Z,101659.25
2023-04-19T21:30:53.286Z,101661.91
2023-04-19T21:33:20.142Z,101660.13
2023-04-19T21:35:46.926Z,101662.78
2023-04-19T21:38:13.689Z,101665.47
2023-04-19T21:40:40.596Z,101652.16
2023-04-19T21:43:07.376Z,101664.56
2023-04-19T21:45:34.187Z,101662.78
2023-04-19T21:48:00.996Z,101643.25
2023-04-19T21:50:27.899Z,101649.44
2023-04-19T21:52:54.685Z,101646.78
2023-04-19T21:55:21.527Z,101656.53
2023-04-19T21:57:48.279Z,101653.00
2023-04-19T22:00:15.814Z,101639.69
2023-04-19T22:02:42.762Z,101646.75
2023-04-19T22:05:09.964Z,101639.63
2023-04-19T22:07:39.359Z,101649.38
2023-04-19T22:10:07.449Z,101639.63
2023-04-19T22:12:34.278Z,101644.00
2023-04-19T22:15:02.380Z,101650.19
2023-04-19T22:17:29.772Z,101636.91
2023-04-19T22:19:56.687Z,101636.00
2023-04-19T22:22:23.460Z,101646.59
2023-04-19T22:24:57.465Z,101643.03
2023-04-19T22:27:25.659Z,101637.69
2023-04-19T22:29:52.757Z,101630.56
2023-04-19T22:32:19.597Z,101627.00
2023-04-19T22:34:46.553Z,101626.06
2023-04-19T22:37:13.324Z,101626.06
2023-04-19T22:39:40.381Z,101621.63
2023-04-19T22:42:07.143Z,101627.81
2023-04-19T22:44:33.918Z,101621.56
2023-04-19T22:47:00.785Z,101632.16
2023-04-19T22:49:27.578Z,101633.00
2023-04-19T22:51:54.731Z,101627.63
2023-04-19T22:54:21.672Z,101624.91
2023-04-19T22:56:48.438Z,101616.00
2023-04-19T22:59:15.402Z,101615.09
2023-04-19T23:01:42.555Z,101607.94
2023-04-19T23:04:13.958Z,101621.09
2023-04-19T23:06:42.505Z,101619.25
2023-04-19T23:09:10.945Z,101633.28
2023-04-19T23:11:39.082Z,101629.69
2023-04-19T23:14:06.160Z,101627.81
2023-04-19T23:16:33.311Z,101625.06
2023-04-19T23:19:01.049Z,101613.47
2023-04-19T23:21:29.914Z,101614.25
2023-04-19T23:23:56.698Z,101623.88
2023-04-19T23:26:23.556Z,101616.72
2023-04-19T23:28:50.443Z,101615.72
2023-04-19T23:31:17.324Z,101627.09
2023-04-19T23:33:44.229Z,101621.69
2023-04-19T23:36:11.084Z,101612.81
2023-04-19T23:38:37.906Z,101618.91
2023-04-19T23:41:04.697Z,101618.91
2023-04-19T23:43:31.497Z,101610.91
2023-04-19T23:45:58.277Z,101613.50
2023-04-19T23:48:25.084Z,101605.50
2023-04-19T23:50:51.852Z,101595.72
2023-04-19T23:53:18.627Z,101588.66
2023-04-19T23:55:45.410Z,101584.16
2023-04-19T23:58:12.230Z,101582.28
